createdAt,value
2023-03-16T00:00:19.990Z,89.53
2023-03-16T00:02:47.346Z,91.45
2023-03-16T00:05:15.169Z,91.93
2023-03-16T00:07:43.193Z,89.47
2023-03-16T00:10:12.683Z,92.05
2023-03-16T00:12:44.023Z,90.53
2023-03-16T00:15:11.685Z,90.90
2023-03-16T00:17:39.094Z,91.43
2023-03-16T00:20:07.475Z,90.45
2023-03-16T00:22:34.736Z,89.68
2023-03-16T00:25:01.971Z,90.13
2023-03-16T00:27:29.243Z,90.15
2023-03-16T00:29:58.036Z,90.07
2023-03-16T00:32:28.917Z,89.70
2023-03-16T00:34:56.201Z,90.00
2023-03-16T00:37:24.554Z,90.40
2023-03-16T00:39:52.351Z,89.72
2023-03-16T00:42:20.327Z,89.60
2023-03-16T00:44:47.388Z,91.07
2023-03-16T00:47:15.745Z,90.88
2023-03-16T00:49:44.116Z,91.50
2023-03-16T00:52:16.465Z,90.63
2023-03-16T00:54:44.871Z,91.80
2023-03-16T00:57:12.922Z,90.25
2023-03-16T00:59:40.925Z,90.85
2023-03-16T01:02:09.254Z,90.07
2023-03-16T01:04:39.893Z,91.63
2023-03-16T01:07:08.053Z,90.97
2023-03-16T01:09:37.223Z,91.40
2023-03-16T01:12:06.416Z,90.53
2023-03-16T01:14:35.626Z,89.90
2023-03-16T01:17:04.791Z,90.30
2023-03-16T01:19:35.714Z,89.82
2023-03-16T01:22:06.630Z,89.95
2023-03-16T01:24:37.152Z,90.45
2023-03-16T01:27:05.113Z,90.27
2023-03-16T01:29:33.384Z,89.75
2023-03-16T01:32:01.069Z,90.53
2023-03-16T01:34:32.039Z,90.07
2023-03-16T01:37:00.101Z,89.57
2023-03-16T01:39:49.087Z,89.95
2023-03-16T01:42:16.613Z,89.97
2023-03-16T01:44:52.142Z,91.40
2023-03-16T01:47:19.501Z,90.28
2023-03-16T01:49:48.300Z,91.82
2023-03-16T01:52:19.203Z,90.15
2023-03-16T01:54:50.565Z,93.80
2023-03-16T01:59:50.467Z,90.13
2023-03-16T02:02:21.620Z,91.70
2023-03-16T02:04:52.136Z,89.20
2023-03-16T02:07:58.592Z,93.95
2023-03-16T02:19:47.323Z,94.45
2023-03-16T02:22:14.946Z,90.13
2023-03-16T02:24:42.569Z,90.35
2023-03-16T02:27:12.744Z,89.28
2023-03-16T02:30:02.975Z,90.43
2023-03-16T02:32:37.109Z,91.57
2023-03-16T02:35:06.116Z,92.30
2023-03-16T02:37:36.465Z,91.68
2023-03-16T02:40:20.882Z,91.13
2023-03-16T02:42:56.363Z,91.40
2023-03-16T02:45:33.490Z,90.68
2023-03-16T02:48:05.722Z,89.50
2023-03-16T02:52:59.410Z,89.88
2023-03-16T02:55:26.577Z,89.65
2023-03-16T02:57:53.589Z,89.72
2023-03-16T03:00:22.123Z,90.18
2023-03-16T03:02:52.777Z,89.90
2023-03-16T03:05:20.761Z,90.07
2023-03-16T03:07:47.822Z,90.40
2023-03-16T03:10:15.139Z,90.72
2023-03-16T03:12:42.715Z,90.15
2023-03-16T03:15:10.962Z,89.20
2023-03-16T03:18:02.687Z,91.30
2023-03-16T03:20:31.080Z,90.10
2023-03-16T03:22:57.959Z,91.25
2023-03-16T03:25:25.028Z,90.85
2023-03-16T03:27:56.856Z,90.63
2023-03-16T03:30:25.487Z,90.32
2023-03-16T03:32:52.915Z,89.05
2023-03-16T03:35:23.267Z,92.43
2023-03-16T03:37:50.810Z,90.38
2023-03-16T03:40:19.788Z,90.07
2023-03-16T03:42:51.448Z,90.07
2023-03-16T03:45:18.834Z,90.03
2023-03-16T03:47:45.798Z,90.78
2023-03-16T03:50:18.958Z,90.45
2023-03-16T03:53:11.569Z,91.20
2023-03-16T03:55:58.846Z,90.57
2023-03-16T03:58:25.851Z,91.93
2023-03-16T04:00:52.786Z,89.90
2023-03-16T04:03:19.820Z,90.43
2023-03-16T04:05:47.339Z,90.22
2023-03-16T04:08:16.735Z,90.90
2023-03-16T04:10:44.834Z,89.10
2023-03-16T04:13:11.907Z,91.13
2023-03-16T04:15:38.876Z,89.72
2023-03-16T04:18:13.675Z,89.53
2023-03-16T04:20:41.907Z,89.72
2023-03-16T04:23:10.187Z,90.70
2023-03-16T04:25:41.398Z,90.03
2023-03-16T04:28:09.348Z,89.85
2023-03-16T04:30:39.010Z,91.65
2023-03-16T04:33:15.983Z,90.60
2023-03-16T04:35:46.348Z,91.18
2023-03-16T04:38:15.337Z,89.22
2023-03-16T04:40:53.307Z,89.35
2023-03-16T04:43:23.798Z,91.05
2023-03-16T04:45:55.427Z,91.53
2023-03-16T04:48:26.217Z,90.03
2023-03-16T04:50:54.492Z,89.68
2023-03-16T04:53:21.692Z,89.97
2023-03-16T04:55:56.471Z,90.72
2023-03-16T04:58:23.526Z,90.45
2023-03-16T05:00:52.344Z,90.32
2023-03-16T05:03:25.021Z,89.30
2023-03-16T05:05:52.252Z,90.70
2023-03-16T05:08:19.412Z,89.40
2023-03-16T05:10:49.557Z,90.65
2023-03-16T05:13:18.812Z,89.93
2023-03-16T05:15:48.874Z,90.57
2023-03-16T05:18:24.028Z,90.22
2023-03-16T05:20:52.289Z,89.68
2023-03-16T05:23:20.464Z,90.75
2023-03-16T05:25:52.773Z,90.88
2023-03-16T05:28:24.093Z,90.68
2023-03-16T05:30:57.030Z,89.90
2023-03-16T05:33:27.421Z,90.13
2023-03-16T05:36:03.055Z,89.65
2023-03-16T05:38:32.020Z,89.28
2023-03-16T05:41:03.384Z,90.25
2023-03-16T05:43:46.477Z,91.38
2023-03-16T05:46:14.949Z,90.40
2023-03-16T05:48:42.261Z,89.82
2023-03-16T05:51:14.299Z,90.32
2023-03-16T05:53:42.563Z,91.95
2023-03-16T05:56:17.469Z,90.85
2023-03-16T05:58:47.604Z,90.75
2023-03-16T06:01:15.693Z,90.97
2023-03-16T06:03:43.821Z,90.70
2023-03-16T06:06:16.892Z,90.43
2023-03-16T06:08:54.156Z,89.90
2023-03-16T06:11:23.325Z,89.45
2023-03-16T06:13:51.728Z,89.80
2023-03-16T06:16:18.818Z,90.47
2023-03-16T06:18:45.936Z,90.13
2023-03-16T06:21:13.192Z,90.90
2023-03-16T06:23:41.054Z,89.80
2023-03-16T06:26:09.548Z,89.80
2023-03-16T06:28:39.954Z,88.93
2023-03-16T06:31:08.493Z,90.60
2023-03-16T06:33:36.512Z,90.30
2023-03-16T06:36:03.965Z,90.13
2023-03-16T06:38:36.096Z,90.30
2023-03-16T06:41:07.087Z,91.50
2023-03-16T06:43:37.643Z,89.82
2023-03-16T06:46:05.725Z,90.78
2023-03-16T06:48:34.061Z,92.10
2023-03-16T06:51:01.556Z,91.93
2023-03-16T06:53:29.878Z,90.95
2023-03-16T06:55:57.633Z,91.18
2023-03-16T06:58:26.679Z,91.10
2023-03-16T07:00:54.100Z,90.63
2023-03-16T07:03:21.645Z,92.60
2023-03-16T07:05:56.082Z,91.00
2023-03-16T07:08:23.072Z,90.95
2023-03-16T07:10:50.941Z,91.70
2023-03-16T07:13:18.137Z,95.22
2023-03-16T07:15:45.118Z,90.35
2023-03-16T07:18:14.939Z,91.20
2023-03-16T07:20:42.799Z,90.30
2023-03-16T07:23:12.506Z,90.60
2023-03-16T07:25:40.944Z,90.45
2023-03-16T07:28:07.934Z,91.03
2023-03-16T07:30:41.274Z,92.07
2023-03-16T07:33:10.137Z,90.30
2023-03-16T07:35:38.507Z,90.57
2023-03-16T07:38:05.565Z,90.28
2023-03-16T07:40:34.938Z,90.97
2023-03-16T07:43:09.832Z,95.07
2023-03-16T07:45:48.837Z,92.60
2023-03-16T07:48:18.447Z,93.03
2023-03-16T07:50:50.940Z,93.13
2023-03-16T07:53:18.739Z,90.25
2023-03-16T07:55:52.112Z,93.30
2023-03-16T07:58:19.484Z,91.65
2023-03-16T08:00:48.538Z,91.45
2023-03-16T08:03:15.748Z,91.05
2023-03-16T08:05:44.495Z,90.57
2023-03-16T08:08:16.292Z,91.18
2023-03-16T08:10:43.864Z,90.35
2023-03-16T08:13:16.225Z,91.57
2023-03-16T08:15:47.532Z,90.18
2023-03-16T08:18:26.004Z,91.75
2023-03-16T08:20:53.739Z,89.57
2023-03-16T08:23:21.319Z,90.20
2023-03-16T08:25:52.790Z,90.63
2023-03-16T08:28:21.766Z,91.35
2023-03-16T08:30:51.227Z,91.35
2023-03-16T08:33:41.273Z,90.72
2023-03-16T08:36:11.792Z,92.32
2023-03-16T08:38:40.196Z,89.78
2023-03-16T08:41:09.868Z,90.03
2023-03-16T08:43:38.307Z,90.63
2023-03-16T08:46:06.996Z,90.47
2023-03-16T08:49:00.365Z,89.88
2023-03-16T08:51:29.456Z,90.30
2023-03-16T08:53:56.885Z,90.50
2023-03-16T08:56:23.850Z,90.53
2023-03-16T08:58:52.241Z,89.72
2023-03-16T09:01:19.791Z,89.43
2023-03-16T09:03:47.006Z,90.05
2023-03-16T09:06:16.118Z,91.53
2023-03-16T09:08:45.425Z,90.13
2023-03-16T09:11:14.925Z,89.43
2023-03-16T09:13:43.153Z,89.55
2023-03-16T09:16:12.612Z,89.95
2023-03-16T09:18:40.184Z,90.65
2023-03-16T09:21:10.409Z,92.82
2023-03-16T09:23:37.797Z,96.18
2023-03-16T09:26:09.501Z,90.97
2023-03-16T09:28:39.145Z,90.03
2023-03-16T09:31:07.565Z,89.80
2023-03-16T09:33:37.126Z,89.00
2023-03-16T09:36:04.728Z,89.50
2023-03-16T09:38:32.314Z,90.00
2023-03-16T09:41:02.028Z,89.78
2023-03-16T09:43:51.952Z,90.32
2023-03-16T09:46:27.403Z,89.65
2023-03-16T09:48:57.349Z,90.25
2023-03-16T09:51:44.655Z,89.93
2023-03-16T09:54:23.974Z,88.78
2023-03-16T09:56:52.562Z,89.78
2023-03-16T09:59:22.806Z,88.53
2023-03-16T10:02:19.845Z,89.93
2023-03-16T10:04:57.916Z,89.55
2023-03-16T10:07:35.239Z,89.25
2023-03-16T10:10:15.785Z,89.97
2023-03-16T10:12:48.138Z,89.13
2023-03-16T10:15:18.626Z,90.20
2023-03-16T10:17:50.318Z,89.60
2023-03-16T10:20:21.897Z,88.97
2023-03-16T10:22:52.791Z,88.97
2023-03-16T10:25:23.833Z,89.15
2023-03-16T10:27:51.724Z,88.82
2023-03-16T10:30:25.959Z,89.68
2023-03-16T10:32:53.176Z,89.10
2023-03-16T10:35:38.413Z,90.13
2023-03-16T10:38:08.621Z,88.97
2023-03-16T10:40:38.871Z,91.40
2023-03-16T10:43:09.469Z,88.72
2023-03-16T10:45:36.774Z,89.85
2023-03-16T10:48:08.453Z,88.70
2023-03-16T10:50:37.055Z,89.03
2023-03-16T10:53:04.426Z,89.88
2023-03-16T10:55:40.919Z,88.75
2023-03-16T10:58:09.194Z,88.43
2023-03-16T11:00:38.554Z,89.38
2023-03-16T11:03:23.053Z,88.93
2023-03-16T11:05:59.131Z,88.93
2023-03-16T11:08:27.756Z,88.85
2023-03-16T11:10:59.585Z,88.22
2023-03-16T11:13:34.781Z,89.47
2023-03-16T11:16:06.588Z,89.03
2023-03-16T11:18:39.204Z,88.88
2023-03-16T11:21:16.467Z,88.65
2023-03-16T11:23:49.796Z,88.85
2023-03-16T11:26:23.271Z,89.68
2023-03-16T11:28:56.458Z,89.35
2023-03-16T11:31:30.500Z,88.95
2023-03-16T11:33:58.461Z,88.68
2023-03-16T11:36:43.281Z,88.65
2023-03-16T11:39:18.197Z,88.63
2023-03-16T11:41:58.264Z,90.80
2023-03-16T11:44:32.152Z,88.32
2023-03-16T11:47:07.409Z,89.60
2023-03-16T11:49:55.963Z,89.32
2023-03-16T11:52:36.838Z,89.18
2023-03-16T11:55:18.406Z,88.35
2023-03-16T11:57:57.712Z,88.70
2023-03-16T12:00:35.899Z,88.40
2023-03-16T12:03:35.188Z,88.93
2023-03-16T12:06:22.235Z,89.82
2023-03-16T12:09:35.548Z,92.25
2023-03-16T12:12:13.094Z,88.63
2023-03-16T12:14:44.467Z,89.15
2023-03-16T12:20:09.936Z,88.07
2023-03-16T12:22:50.734Z,88.20
2023-03-16T12:25:36.939Z,88.90
2023-03-16T12:28:26.127Z,88.57
2023-03-16T12:31:20.698Z,88.38
2023-03-16T12:34:03.743Z,88.65
2023-03-16T12:36:50.994Z,87.80
2023-03-16T12:39:30.947Z,88.03
2023-03-16T12:42:08.676Z,88.78
2023-03-16T12:44:44.266Z,89.00
2023-03-16T12:47:20.547Z,89.05
2023-03-16T12:49:48.202Z,88.50
2023-03-16T12:52:15.345Z,88.30
2023-03-16T12:54:51.873Z,87.93
2023-03-16T12:57:20.482Z,91.20
2023-03-16T12:59:55.184Z,88.75
2023-03-16T13:02:31.568Z,89.15
2023-03-16T13:05:02.463Z,88.82
2023-03-16T13:07:31.945Z,88.38
2023-03-16T13:10:04.450Z,88.38
2023-03-16T13:12:37.086Z,88.95
2023-03-16T13:15:30.204Z,88.20
2023-03-16T13:18:21.209Z,89.10
2023-03-16T13:20:54.477Z,88.75
2023-03-16T13:23:25.038Z,87.90
2023-03-16T13:26:16.113Z,88.13
2023-03-16T13:28:49.951Z,88.65
2023-03-16T13:31:27.665Z,88.45
2023-03-16T13:33:56.988Z,87.75
2023-03-16T13:36:25.566Z,88.18
2023-03-16T13:39:04.561Z,88.65
2023-03-16T13:41:31.688Z,88.43
2023-03-16T13:43:58.563Z,88.63
2023-03-16T13:46:30.429Z,88.60
2023-03-16T13:49:00.896Z,88.55
2023-03-16T13:51:30.981Z,87.77
2023-03-16T13:53:58.139Z,90.60
2023-03-16T13:56:29.476Z,88.85
2023-03-16T13:58:58.663Z,88.53
2023-03-16T14:01:27.620Z,89.40
2023-03-16T14:04:00.168Z,89.00
2023-03-16T14:06:28.918Z,89.03
2023-03-16T14:08:58.813Z,88.95
2023-03-16T14:11:28.538Z,89.40
2023-03-16T14:13:57.380Z,88.60
2023-03-16T14:16:26.721Z,88.75
2023-03-16T14:18:58.833Z,88.93
2023-03-16T14:21:29.354Z,88.32
2023-03-16T14:24:00.317Z,89.10
2023-03-16T14:26:27.919Z,88.18
2023-03-16T14:29:02.918Z,88.45
2023-03-16T14:31:34.950Z,89.35
2023-03-16T14:34:06.009Z,88.38
2023-03-16T14:36:38.287Z,88.50
2023-03-16T14:39:14.237Z,88.57
2023-03-16T14:41:41.518Z,88.25
2023-03-16T14:44:20.188Z,89.78
2023-03-16T14:46:47.573Z,90.63
2023-03-16T14:49:22.855Z,89.90
2023-03-16T14:51:52.858Z,89.70
2023-03-16T14:54:24.421Z,88.93
2023-03-16T14:56:53.045Z,90.32
2023-03-16T14:59:21.378Z,88.25
2023-03-16T15:01:50.555Z,89.75
2023-03-16T15:04:24.804Z,88.97
2023-03-16T15:06:52.048Z,88.50
2023-03-16T15:09:31.530Z,89.00
2023-03-16T15:11:58.613Z,89.43
2023-03-16T15:14:45.572Z,88.78
2023-03-16T15:17:12.619Z,88.25
2023-03-16T15:19:41.356Z,88.75
2023-03-16T15:22:12.847Z,89.07
2023-03-16T15:24:40.200Z,88.10
2023-03-16T15:27:20.547Z,88.35
2023-03-16T15:29:47.706Z,89.68
2023-03-16T15:32:18.243Z,88.97
2023-03-16T15:34:46.792Z,89.00
2023-03-16T15:37:15.475Z,89.63
2023-03-16T15:39:42.953Z,88.30
2023-03-16T15:42:14.541Z,88.53
2023-03-16T15:44:41.861Z,88.50
2023-03-16T15:47:09.416Z,90.03
2023-03-16T15:49:47.155Z,89.63
2023-03-16T15:52:24.433Z,90.53
2023-03-16T15:54:51.718Z,89.00
2023-03-16T15:57:19.078Z,88.63
2023-03-16T15:59:47.517Z,89.30
2023-03-16T16:02:28.544Z,88.60
2023-03-16T16:04:56.395Z,89.55
2023-03-16T16:07:25.533Z,88.20
2023-03-16T16:09:52.838Z,88.82
2023-03-16T16:12:27.317Z,88.40
2023-03-16T16:14:56.477Z,88.25
2023-03-16T16:17:36.416Z,89.47
2023-03-16T16:20:20.626Z,89.72
2023-03-16T16:22:49.656Z,88.40
2023-03-16T16:25:17.462Z,88.60
2023-03-16T16:27:44.939Z,88.60
2023-03-16T16:30:20.589Z,88.15
2023-03-16T16:32:48.085Z,88.10
2023-03-16T16:35:17.055Z,91.55
2023-03-16T16:37:45.167Z,88.90
2023-03-16T16:40:23.296Z,89.20
2023-03-16T16:42:52.716Z,88.55
2023-03-16T16:45:21.855Z,89.65
2023-03-16T16:47:52.636Z,90.63
2023-03-16T16:50:21.922Z,88.55
2023-03-16T16:52:50.245Z,87.82
2023-03-16T16:55:19.372Z,88.55
2023-03-16T16:57:48.281Z,89.88
2023-03-16T17:00:21.542Z,88.60
2023-03-16T17:02:53.774Z,89.05
2023-03-16T17:05:22.948Z,88.93
2023-03-16T17:07:51.099Z,88.03
2023-03-16T17:10:22.358Z,88.57
2023-03-16T17:12:52.186Z,88.13
2023-03-16T17:15:24.669Z,89.07
2023-03-16T17:17:53.196Z,89.00
2023-03-16T17:20:25.440Z,88.47
2023-03-16T17:22:54.815Z,89.05
2023-03-16T17:25:23.551Z,88.75
2023-03-16T17:27:53.527Z,88.78
2023-03-16T17:30:27.465Z,88.85
2023-03-16T17:32:56.489Z,89.05
2023-03-16T17:35:24.312Z,89.47
2023-03-16T17:37:51.685Z,89.30
2023-03-16T17:40:20.846Z,90.68
2023-03-16T17:42:50.023Z,91.32
2023-03-16T17:45:19.540Z,90.70
2023-03-16T17:47:47.776Z,90.85
2023-03-16T17:50:18.122Z,89.47
2023-03-16T17:52:45.150Z,89.40
2023-03-16T17:55:12.736Z,89.97
2023-03-16T17:57:40.101Z,90.93
2023-03-16T18:00:21.866Z,90.43
2023-03-16T18:02:51.748Z,90.28
2023-03-16T18:05:21.435Z,91.55
2023-03-16T18:07:52.144Z,90.38
2023-03-16T18:10:21.130Z,89.90
2023-03-16T18:12:53.571Z,92.57
2023-03-16T18:15:25.105Z,92.10
2023-03-16T18:17:52.705Z,90.13
2023-03-16T18:20:28.376Z,90.32
2023-03-16T18:22:56.407Z,90.78
2023-03-16T18:25:36.243Z,91.50
2023-03-16T18:28:03.353Z,90.60
2023-03-16T18:30:33.002Z,90.45
2023-03-16T18:33:01.469Z,90.25
2023-03-16T18:35:29.612Z,90.10
2023-03-16T18:37:57.114Z,90.80
2023-03-16T18:40:25.815Z,89.95
2023-03-16T18:42:54.526Z,90.38
2023-03-16T18:45:22.015Z,89.72
2023-03-16T18:47:58.262Z,92.07
2023-03-16T18:50:27.808Z,90.72
2023-03-16T18:52:56.373Z,90.18
2023-03-16T18:55:25.247Z,90.50
2023-03-16T18:57:56.450Z,91.55
2023-03-16T19:00:26.081Z,90.22
2023-03-16T19:02:56.619Z,90.57
2023-03-16T19:05:31.777Z,90.40
2023-03-16T19:07:58.707Z,90.85
2023-03-16T19:10:28.357Z,95.60
2023-03-16T19:12:55.579Z,90.85
2023-03-16T19:15:24.980Z,91.10
2023-03-16T19:17:52.550Z,91.05
2023-03-16T19:20:23.262Z,92.55
2023-03-16T19:25:25.990Z,90.90
2023-03-16T19:27:53.958Z,90.20
2023-03-16T19:30:24.561Z,90.65
2023-03-16T19:32:52.238Z,90.60
2023-03-16T19:35:21.799Z,90.22
2023-03-16T19:37:49.312Z,90.70
2023-03-16T19:40:18.816Z,91.60
2023-03-16T19:42:46.752Z,90.38
2023-03-16T19:45:24.675Z,91.60
2023-03-16T19:47:52.591Z,90.63
2023-03-16T19:50:22.751Z,91.68
2023-03-16T19:52:50.429Z,90.60
2023-03-16T19:55:20.552Z,90.88
2023-03-16T20:00:50.468Z,92.05
2023-03-16T20:03:17.502Z,91.93
2023-03-16T20:05:45.710Z,91.43
2023-03-16T20:08:21.296Z,91.00
2023-03-16T20:10:48.891Z,90.55
2023-03-16T20:13:15.906Z,91.47
2023-03-16T20:15:43.610Z,91.30
2023-03-16T20:18:15.434Z,92.90
2023-03-16T20:20:43.738Z,90.85
2023-03-16T20:23:20.494Z,90.88
2023-03-16T20:25:48.937Z,90.55
2023-03-16T20:28:19.935Z,90.47
2023-03-16T20:30:47.918Z,91.00
2023-03-16T20:33:19.993Z,90.80
2023-03-16T20:35:47.595Z,91.30
2023-03-16T20:38:15.689Z,90.70
2023-03-16T20:40:46.479Z,90.78
2023-03-16T20:43:32.761Z,91.55
2023-03-16T20:46:02.543Z,92.72
2023-03-16T20:48:29.765Z,92.85
2023-03-16T20:50:58.148Z,92.10
2023-03-16T20:53:25.446Z,93.25
2023-03-16T20:55:55.284Z,91.65
2023-03-16T20:58:25.340Z,92.53
2023-03-16T21:00:57.559Z,91.75
2023-03-16T21:03:27.600Z,92.80
2023-03-16T21:05:58.998Z,91.57
2023-03-16T21:08:26.959Z,91.68
2023-03-16T21:10:57.131Z,90.18
2023-03-16T21:13:28.621Z,91.57
2023-03-16T21:15:57.956Z,90.57
2023-03-16T21:18:25.451Z,93.32
2023-03-16T21:20:53.213Z,90.18
2023-03-16T21:23:22.429Z,90.40
2023-03-16T21:25:51.542Z,90.35
2023-03-16T21:28:20.824Z,90.28
2023-03-16T21:30:50.304Z,90.25
2023-03-16T21:33:24.601Z,90.28
2023-03-16T21:35:52.325Z,90.55
2023-03-16T21:38:20.897Z,91.07
2023-03-16T21:40:48.371Z,90.57
2023-03-16T21:43:15.872Z,91.88
2023-03-16T21:45:45.286Z,92.03
2023-03-16T21:48:15.621Z,90.85
2023-03-16T21:50:42.856Z,90.90
2023-03-16T21:53:19.933Z,91.57
2023-03-16T21:55:47.323Z,90.82
2023-03-16T21:58:14.117Z,92.07
2023-03-16T22:00:41.645Z,91.55
2023-03-16T22:03:22.652Z,89.97
2023-03-16T22:05:49.540Z,90.25
2023-03-16T22:08:22.400Z,90.25
2023-03-16T22:10:49.773Z,90.75
2023-03-16T22:13:18.976Z,90.45
2023-03-16T22:15:48.408Z,90.47
2023-03-16T22:18:27.951Z,90.35
2023-03-16T22:20:55.906Z,91.13
2023-03-16T22:23:29.692Z,92.55
2023-03-16T22:25:56.824Z,92.28
2023-03-16T22:28:25.004Z,91.60
2023-03-16T22:30:52.466Z,92.72
2023-03-16T22:33:24.881Z,90.90
2023-03-16T22:35:52.660Z,91.45
2023-03-16T22:38:19.502Z,90.78
2023-03-16T22:40:46.283Z,90.50
2023-03-16T22:43:17.581Z,92.20
2023-03-16T22:48:18.222Z,90.55
2023-03-16T22:50:47.231Z,91.07
2023-03-16T22:53:20.522Z,91.55
2023-03-16T22:55:48.492Z,91.82
2023-03-16T22:58:19.332Z,90.43
2023-03-16T23:00:46.310Z,90.60
2023-03-16T23:03:17.018Z,90.93
2023-03-16T23:05:43.972Z,91.45
2023-03-16T23:08:15.558Z,92.57
2023-03-16T23:10:42.556Z,92.53
2023-03-16T23:13:14.070Z,91.22
2023-03-16T23:15:41.589Z,90.97
2023-03-16T23:18:16.520Z,90.88
2023-03-16T23:20:43.582Z,91.45
2023-03-16T23:23:10.470Z,92.97
2023-03-16T23:25:39.118Z,91.78
2023-03-16T23:28:07.177Z,92.07
2023-03-16T23:30:34.917Z,92.75
2023-03-16T23:33:01.964Z,92.97
2023-03-16T23:35:30.957Z,92.82
2023-03-16T23:37:57.769Z,91.50
2023-03-16T23:40:28.140Z,91.22
2023-03-16T23:42:59.965Z,90.43
2023-03-16T23:45:32.405Z,91.90
2023-03-16T23:48:02.463Z,92.18
2023-03-16T23:50:32.433Z,92.88
2023-03-16T23:52:59.753Z,91.93
2023-03-16T23:55:26.635Z,91.70
2023-03-16T23:57:53.716Z,90.97
